createdAt,value
2022-08-30T00:04:07.041Z,2.83
2022-08-30T00:09:15.869Z,2.83
2022-08-30T00:14:24.580Z,2.83
2022-08-30T00:19:33.203Z,2.82
2022-08-30T00:24:40.906Z,2.82
2022-08-30T00:29:48.487Z,2.84
2022-08-30T00:34:56.226Z,2.83
2022-08-30T00:40:03.413Z,2.82
2022-08-30T00:45:11.293Z,2.83
2022-08-30T00:50:18.919Z,2.83
2022-08-30T00:55:27.047Z,2.82
2022-08-30T01:00:35.805Z,2.82
2022-08-30T01:05:43.238Z,2.82
2022-08-30T01:10:50.962Z,2.83
2022-08-30T01:16:01.149Z,2.82
2022-08-30T01:21:08.462Z,2.83
2022-08-30T01:26:16.137Z,2.82
2022-08-30T01:31:24.235Z,2.83
2022-08-30T01:36:31.577Z,2.82
2022-08-30T01:41:39.421Z,2.83
2022-08-30T01:46:47.215Z,2.82
2022-08-30T01:51:53.941Z,2.83
2022-08-30T01:57:01.019Z,2.83
2022-08-30T02:02:08.854Z,2.82
2022-08-30T02:07:16.096Z,2.82
2022-08-30T02:12:23.277Z,2.83
2022-08-30T02:17:29.867Z,2.83
2022-08-30T02:22:37.846Z,2.83
2022-08-30T02:27:45.528Z,2.82
2022-08-30T02:32:53.009Z,2.83
2022-08-30T02:38:01.027Z,2.82
2022-08-30T02:43:09.514Z,2.82
2022-08-30T02:48:17.741Z,2.82
2022-08-30T02:53:25.282Z,2.81
2022-08-30T02:58:33.176Z,2.82
2022-08-30T03:03:40.509Z,2.82
2022-08-30T03:08:48.500Z,2.82
2022-08-30T03:13:56.667Z,2.82
2022-08-30T03:19:04.334Z,2.82
2022-08-30T03:24:13.232Z,2.82
2022-08-30T03:29:19.603Z,2.81
2022-08-30T03:34:28.578Z,2.81
2022-08-30T03:39:36.626Z,2.81
2022-08-30T03:44:43.835Z,2.81
2022-08-30T03:49:51.009Z,2.82
2022-08-30T03:54:58.167Z,2.81
2022-08-30T04:00:05.526Z,2.82
2022-08-30T04:05:12.570Z,2.81
2022-08-30T04:10:19.768Z,2.82
2022-08-30T04:15:28.075Z,2.81
2022-08-30T04:20:36.078Z,2.82
2022-08-30T04:25:43.835Z,2.82
2022-08-30T04:30:51.285Z,2.82
2022-08-30T04:36:00.724Z,2.82
2022-08-30T04:41:07.109Z,2.82
2022-08-30T04:46:13.983Z,2.82
2022-08-30T04:51:20.542Z,2.82
2022-08-30T04:56:28.696Z,2.82
2022-08-30T05:01:35.597Z,2.82
2022-08-30T05:06:43.396Z,2.82
2022-08-30T05:11:51.570Z,2.82
2022-08-30T05:17:07.581Z,2.83
2022-08-30T05:22:14.633Z,2.83
2022-08-30T05:27:21.835Z,2.84
2022-08-30T05:32:30.812Z,2.87
2022-08-30T05:37:37.527Z,2.87
2022-08-30T05:42:46.428Z,2.89
2022-08-30T05:47:54.337Z,2.89
2022-08-30T05:53:01.685Z,2.9
2022-08-30T05:58:08.855Z,2.89
2022-08-30T06:03:17.180Z,2.9
2022-08-30T06:08:25.852Z,2.9
2022-08-30T06:13:33.693Z,2.9
2022-08-30T06:18:40.887Z,2.89
2022-08-30T06:23:48.087Z,2.9
2022-08-30T06:28:56.964Z,2.9
2022-08-30T06:34:04.659Z,2.9
2022-08-30T06:39:11.947Z,2.89
2022-08-30T06:44:18.783Z,2.88
2022-08-30T06:49:25.981Z,2.88
2022-08-30T06:54:33.820Z,2.88
2022-08-30T06:59:41.000Z,2.87
2022-08-30T07:04:48.856Z,2.86
2022-08-30T07:09:56.661Z,2.86
2022-08-30T07:15:04.567Z,2.86
2022-08-30T07:20:12.121Z,2.86
2022-08-30T07:25:19.613Z,2.88
2022-08-30T07:30:26.166Z,2.88
2022-08-30T07:35:33.969Z,2.87
2022-08-30T07:40:51.326Z,2.87
2022-08-30T07:45:58.644Z,2.87
2022-08-30T07:51:06.742Z,2.88
2022-08-30T07:56:14.902Z,2.87
2022-08-30T08:01:22.376Z,2.88
2022-08-30T08:06:30.289Z,2.89
2022-08-30T08:11:37.819Z,2.88
2022-08-30T08:16:45.018Z,2.88
2022-08-30T08:21:52.221Z,2.89
2022-08-30T08:26:59.417Z,2.89
2022-08-30T08:32:05.991Z,2.9
2022-08-30T08:37:13.822Z,2.89
2022-08-30T08:42:21.389Z,2.89
2022-08-30T08:47:28.887Z,2.89
2022-08-30T08:52:36.575Z,2.89
2022-08-30T08:57:45.049Z,2.89
2022-08-30T09:02:53.263Z,2.89
2022-08-30T09:08:00.221Z,2.89
2022-08-30T09:13:08.136Z,2.89
2022-08-30T09:18:15.462Z,2.9
2022-08-30T09:23:24.152Z,2.9
2022-08-30T09:28:31.625Z,2.9
2022-08-30T09:33:38.778Z,2.89
2022-08-30T09:38:46.819Z,2.91
2022-08-30T09:44:03.428Z,2.89
2022-08-30T09:49:10.618Z,2.9
2022-08-30T09:54:18.769Z,2.9
2022-08-30T09:59:25.862Z,2.9
2022-08-30T10:04:33.633Z,2.89
2022-08-30T10:09:41.925Z,2.91
2022-08-30T10:14:49.369Z,2.91
2022-08-30T10:19:56.980Z,2.9
2022-08-30T10:25:03.865Z,2.91
2022-08-30T10:30:11.417Z,2.9
2022-08-30T10:35:18.700Z,2.91
2022-08-30T10:40:25.823Z,2.91
2022-08-30T10:45:33.637Z,2.9
2022-08-30T10:50:41.082Z,2.9
2022-08-30T10:55:48.836Z,2.91
2022-08-30T11:00:56.534Z,2.91
2022-08-30T11:06:03.100Z,2.92
2022-08-30T11:11:10.307Z,2.9
2022-08-30T11:16:16.858Z,2.9
2022-08-30T11:21:24.139Z,2.9
2022-08-30T11:26:32.536Z,2.9
2022-08-30T11:31:40.411Z,2.9
2022-08-30T11:36:47.614Z,2.9
2022-08-30T11:41:54.928Z,2.9
2022-08-30T11:47:02.679Z,2.91
2022-08-30T11:52:10.191Z,2.9
2022-08-30T11:57:18.325Z,2.91
2022-08-30T12:02:25.641Z,2.91
2022-08-30T12:07:32.886Z,2.91
2022-08-30T12:12:40.537Z,2.91
2022-08-30T12:17:48.378Z,2.91
2022-08-30T12:22:56.863Z,2.91
2022-08-30T12:28:04.018Z,2.9
2022-08-30T12:33:12.050Z,2.91
2022-08-30T12:38:19.743Z,2.91
2022-08-30T12:43:26.738Z,2.9
2022-08-30T12:48:33.758Z,2.9
2022-08-30T12:53:40.766Z,2.9
2022-08-30T12:58:47.896Z,2.91
2022-08-30T13:03:55.771Z,2.9
2022-08-30T13:09:13.075Z,2.91
2022-08-30T13:14:21.762Z,2.91
2022-08-30T13:19:28.219Z,2.91
2022-08-30T13:24:35.929Z,2.91
2022-08-30T13:29:43.913Z,2.92
2022-08-30T13:34:51.975Z,2.91
2022-08-30T13:39:59.756Z,2.91
2022-08-30T13:45:07.100Z,2.91
2022-08-30T13:50:13.727Z,2.91
2022-08-30T13:55:22.970Z,2.92
2022-08-30T14:00:31.585Z,2.9
2022-08-30T14:05:39.147Z,2.91
2022-08-30T14:10:47.264Z,2.9
2022-08-30T14:15:55.221Z,2.9
2022-08-30T14:21:01.659Z,2.91
2022-08-30T14:26:08.650Z,2.91
2022-08-30T14:31:16.122Z,2.91
2022-08-30T14:36:24.219Z,2.89
2022-08-30T14:41:31.083Z,2.9
2022-08-30T14:46:39.495Z,2.9
2022-08-30T14:51:46.727Z,2.91
2022-08-30T14:56:54.647Z,2.91
2022-08-30T15:02:02.943Z,2.9
2022-08-30T15:07:10.942Z,2.91
2022-08-30T15:12:17.534Z,2.91
2022-08-30T15:17:25.841Z,2.92
2022-08-30T15:22:33.235Z,2.9
2022-08-30T15:27:41.004Z,2.91
2022-08-30T15:32:48.216Z,2.92
2022-08-30T15:37:55.825Z,2.91
2022-08-30T15:43:02.790Z,2.91
2022-08-30T15:48:09.759Z,2.91
2022-08-30T15:53:16.376Z,2.92
2022-08-30T15:58:22.957Z,2.91
2022-08-30T16:03:31.930Z,2.9
2022-08-30T16:08:41.781Z,2.91
2022-08-30T16:13:50.216Z,2.9
2022-08-30T16:18:57.305Z,2.9
2022-08-30T16:24:03.422Z,2.9
2022-08-30T16:29:10.861Z,2.91
2022-08-30T16:34:19.304Z,2.9
2022-08-30T16:39:26.488Z,2.89
2022-08-30T16:44:33.499Z,2.88
2022-08-30T16:49:40.461Z,2.88
2022-08-30T16:54:47.836Z,2.88
2022-08-30T16:59:55.327Z,2.88
2022-08-30T17:05:02.439Z,2.86
2022-08-30T17:10:10.634Z,2.87
2022-08-30T17:15:18.023Z,2.86
2022-08-30T17:20:25.215Z,2.86
2022-08-30T17:25:32.384Z,2.86
2022-08-30T17:30:39.547Z,2.85
2022-08-30T17:35:46.744Z,2.85
2022-08-30T17:40:54.281Z,2.85
2022-08-30T17:46:02.093Z,2.84
2022-08-30T17:51:10.174Z,2.86
2022-08-30T17:56:17.536Z,2.84
2022-08-30T18:01:24.730Z,2.84
2022-08-30T18:06:31.962Z,2.84
2022-08-30T18:11:39.135Z,2.84
2022-08-30T18:16:45.660Z,2.84
2022-08-30T18:21:53.705Z,2.83
2022-08-30T18:27:01.239Z,2.83
2022-08-30T18:32:08.973Z,2.83
2022-08-30T18:37:16.997Z,2.83
2022-08-30T18:42:24.013Z,2.83
2022-08-30T18:47:31.711Z,2.83
2022-08-30T18:52:40.215Z,2.83
2022-08-30T18:57:49.564Z,2.83
2022-08-30T19:02:56.830Z,2.83
2022-08-30T19:08:04.335Z,2.83
2022-08-30T19:13:11.940Z,2.83
2022-08-30T19:18:19.152Z,2.83
2022-08-30T19:23:26.575Z,2.83
2022-08-30T19:28:33.496Z,2.83
2022-08-30T19:33:40.862Z,2.84
2022-08-30T19:38:48.442Z,2.83
2022-08-30T19:43:56.418Z,2.83
2022-08-30T19:49:05.217Z,2.83
2022-08-30T19:54:13.277Z,2.82
2022-08-30T19:59:20.574Z,2.83
2022-08-30T20:04:28.349Z,2.83
2022-08-30T20:11:06.756Z,2.82
2022-08-30T20:16:12.948Z,2.82
2022-08-30T20:21:20.312Z,2.82
2022-08-30T20:26:28.302Z,2.82
2022-08-30T20:31:43.297Z,2.82
2022-08-30T20:36:50.822Z,2.82
2022-08-30T20:41:58.940Z,2.82
2022-08-30T20:47:06.463Z,2.82
2022-08-30T20:52:14.293Z,2.82
2022-08-30T20:57:23.397Z,2.81
2022-08-30T21:02:31.964Z,2.82
2022-08-30T21:07:40.393Z,2.83
2022-08-30T21:12:48.310Z,2.82
2022-08-30T21:17:56.248Z,2.82
2022-08-30T21:23:04.708Z,2.82
2022-08-30T21:28:11.775Z,2.82
2022-08-30T21:33:20.264Z,2.82
2022-08-30T21:38:27.871Z,2.82
2022-08-30T21:43:35.930Z,2.82
2022-08-30T21:48:44.069Z,2.82
2022-08-30T21:53:51.043Z,2.82
2022-08-30T21:58:58.786Z,2.83
2022-08-30T22:04:07.487Z,2.81
2022-08-30T22:09:15.772Z,2.82
2022-08-30T22:14:23.392Z,2.81
2022-08-30T22:19:30.347Z,2.82
2022-08-30T22:24:38.013Z,2.82
2022-08-30T22:29:47.035Z,2.82
2022-08-30T22:34:54.681Z,2.82
2022-08-30T22:40:03.255Z,2.82
2022-08-30T22:45:10.656Z,2.82
2022-08-30T22:50:18.130Z,2.82
2022-08-30T22:55:25.720Z,2.81
2022-08-30T23:00:33.701Z,2.82
2022-08-30T23:05:41.511Z,2.82
2022-08-30T23:10:49.443Z,2.82
2022-08-30T23:15:57.606Z,2.82
2022-08-30T23:21:12.548Z,2.82
2022-08-30T23:26:19.097Z,2.82
2022-08-30T23:31:26.256Z,2.81
2022-08-30T23:36:33.567Z,2.82
2022-08-30T23:41:41.994Z,2.81
2022-08-30T23:46:50.392Z,2.81
2022-08-30T23:51:58.437Z,2.81
2022-08-30T23:57:05.547Z,2.81
